BJK9260 KDFW-KMCI
Flight info
| Callsign | BJK9260 |
|---|---|
| Flight time | 1h 1m |
| Altitude | 31000 |
| Route | BLECO8 ZEMMA STASN WUTNG3 |
| Aircraft | B763/H-VGDW/C |
Departure
| Time | 2026-05-06 00:42 |
|---|---|
| Airport | Dallas Fort Worth International Airport (KDFW) |
Arrival
| Time | 2026-05-06 01:43 |
|---|---|
| Airport | Kansas City International Airport (KMCI) |
| Time | Latitude | Longitude | Altitude | Speed | Heading |
|---|---|---|---|---|---|
| 2026-05-06 00:26 | 32.91182 | -97.03561 | 583 ft | 0 kts | 90° |
| 2026-05-06 00:34 | 32.91182 | -97.03557 | 583 ft | 2 kts | 90° |
| 2026-05-06 00:34 | 32.91173 | -97.03511 | 584 ft | 8 kts | 112° |
| 2026-05-06 00:34 | 32.91143 | -97.03422 | 584 ft | 14 kts | 112° |
| 2026-05-06 00:35 | 32.91051 | -97.03349 | 586 ft | 19 kts | 157° |
| 2026-05-06 00:35 | 32.90904 | -97.03310 | 586 ft | 25 kts | 178° |
| 2026-05-06 00:35 | 32.90708 | -97.03311 | 588 ft | 30 kts | 180° |
| 2026-05-06 00:35 | 32.90496 | -97.03314 | 586 ft | 31 kts | 180° |
| 2026-05-06 00:36 | 32.90284 | -97.03316 | 585 ft | 29 kts | 180° |
| 2026-05-06 00:36 | 32.90078 | -97.03315 | 583 ft | 29 kts | 180° |
| 2026-05-06 00:36 | 32.89880 | -97.03316 | 581 ft | 28 kts | 180° |
| 2026-05-06 00:36 | 32.89692 | -97.03320 | 580 ft | 27 kts | 181° |
| 2026-05-06 00:37 | 32.89505 | -97.03322 | 577 ft | 26 kts | 179° |
| 2026-05-06 00:37 | 32.89323 | -97.03317 | 577 ft | 25 kts | 179° |
| 2026-05-06 00:37 | 32.89153 | -97.03320 | 577 ft | 23 kts | 181° |
| 2026-05-06 00:37 | 32.88988 | -97.03320 | 574 ft | 23 kts | 180° |
| 2026-05-06 00:38 | 32.88828 | -97.03322 | 574 ft | 22 kts | 180° |
| 2026-05-06 00:38 | 32.88679 | -97.03321 | 574 ft | 20 kts | 179° |
| 2026-05-06 00:38 | 32.88542 | -97.03315 | 574 ft | 19 kts | 172° |
| 2026-05-06 00:38 | 32.88415 | -97.03285 | 572 ft | 18 kts | 175° |
| 2026-05-06 00:39 | 32.88287 | -97.03287 | 570 ft | 18 kts | 181° |
| 2026-05-06 00:39 | 32.88164 | -97.03290 | 570 ft | 17 kts | 181° |
| 2026-05-06 00:39 | 32.88048 | -97.03292 | 568 ft | 17 kts | 180° |
| 2026-05-06 00:39 | 32.87934 | -97.03282 | 566 ft | 15 kts | 159° |
| 2026-05-06 00:40 | 32.87902 | -97.03185 | 565 ft | 13 kts | 89° |
| 2026-05-06 00:40 | 32.87904 | -97.03079 | 565 ft | 12 kts | 89° |
| 2026-05-06 00:40 | 32.87918 | -97.03005 | 566 ft | 6 kts | 45° |
| 2026-05-06 00:40 | 32.87972 | -97.03003 | 567 ft | 21 kts | 356° |
| 2026-05-06 00:41 | 32.88290 | -97.03007 | 570 ft | 70 kts | 360° |
| 2026-05-06 00:41 | 32.88938 | -97.03005 | 571 ft | 115 kts | 0° |
| 2026-05-06 00:41 | 32.89871 | -97.02993 | 576 ft | 154 kts | 359° |
| 2026-05-06 00:41 | 32.91010 | -97.02962 | 795 ft | 174 kts | 357° |
| 2026-05-06 00:42 | 32.92194 | -97.02960 | 1535 ft | 164 kts | 359° |
| 2026-05-06 00:42 | 32.93339 | -97.02927 | 1922 ft | 173 kts | 359° |
| 2026-05-06 00:42 | 32.94585 | -97.02898 | 2224 ft | 186 kts | 359° |
| 2026-05-06 00:42 | 32.95915 | -97.02859 | 2547 ft | 199 kts | 359° |
| 2026-05-06 00:43 | 32.97354 | -97.02818 | 2854 ft | 214 kts | 359° |
| 2026-05-06 00:43 | 32.98917 | -97.02769 | 3150 ft | 232 kts | 359° |
| 2026-05-06 00:43 | 33.00606 | -97.02719 | 3429 ft | 254 kts | 359° |
| 2026-05-06 00:43 | 33.02393 | -97.02668 | 4082 ft | 260 kts | 359° |
| 2026-05-06 00:44 | 33.04208 | -97.02611 | 4740 ft | 265 kts | 359° |
| 2026-05-06 00:44 | 33.06083 | -97.02548 | 5402 ft | 271 kts | 359° |
| 2026-05-06 00:44 | 33.07983 | -97.02453 | 5908 ft | 283 kts | 4° |
| 2026-05-06 00:44 | 33.09983 | -97.02116 | 6402 ft | 294 kts | 6° |
| 2026-05-06 00:45 | 33.12002 | -97.01773 | 7063 ft | 296 kts | 6° |
| 2026-05-06 00:45 | 33.14046 | -97.01472 | 7638 ft | 299 kts | 356° |
| 2026-05-06 00:45 | 33.16105 | -97.01869 | 8193 ft | 298 kts | 342° |
| 2026-05-06 00:45 | 33.18106 | -97.02465 | 8813 ft | 301 kts | 342° |
| 2026-05-06 00:46 | 33.20147 | -97.03072 | 9457 ft | 303 kts | 341° |
| 2026-05-06 00:46 | 33.22190 | -97.03707 | 10080 ft | 306 kts | 341° |
| 2026-05-06 00:46 | 33.24294 | -97.04367 | 10529 ft | 316 kts | 341° |
| 2026-05-06 00:46 | 33.26477 | -97.05042 | 10783 ft | 333 kts | 340° |
| 2026-05-06 00:47 | 33.28777 | -97.05764 | 11018 ft | 350 kts | 340° |
| 2026-05-06 00:47 | 33.31165 | -97.06525 | 11539 ft | 357 kts | 340° |
| 2026-05-06 00:47 | 33.33567 | -97.07270 | 12187 ft | 361 kts | 340° |
| 2026-05-06 00:47 | 33.36018 | -97.08042 | 12811 ft | 365 kts | 339° |
| 2026-05-06 00:48 | 33.38492 | -97.08818 | 13448 ft | 368 kts | 339° |
| 2026-05-06 00:48 | 33.40974 | -97.09602 | 14063 ft | 371 kts | 338° |
| 2026-05-06 00:48 | 33.43469 | -97.10383 | 14661 ft | 375 kts | 340° |
| 2026-05-06 00:48 | 33.46095 | -97.10730 | 15210 ft | 391 kts | 356° |
| 2026-05-06 00:49 | 33.48869 | -97.10411 | 15778 ft | 398 kts | 360° |
| 2026-05-06 00:49 | 33.51615 | -97.10078 | 16327 ft | 402 kts | 359° |
| 2026-05-06 00:49 | 33.54397 | -97.09725 | 16883 ft | 406 kts | 359° |
| 2026-05-06 00:49 | 33.57257 | -97.09367 | 17440 ft | 410 kts | 359° |
| 2026-05-06 00:50 | 33.60096 | -97.09009 | 17980 ft | 414 kts | 358° |
| 2026-05-06 00:50 | 33.62963 | -97.08646 | 18514 ft | 418 kts | 358° |
| 2026-05-06 00:50 | 33.65896 | -97.08276 | 19050 ft | 422 kts | 358° |
| 2026-05-06 00:50 | 33.68814 | -97.07906 | 19556 ft | 425 kts | 358° |
| 2026-05-06 00:51 | 33.71768 | -97.07529 | 20097 ft | 426 kts | 358° |
| 2026-05-06 00:51 | 33.74699 | -97.07158 | 20595 ft | 428 kts | 358° |
| 2026-05-06 00:51 | 33.77667 | -97.06780 | 21083 ft | 430 kts | 358° |
| 2026-05-06 00:51 | 33.80654 | -97.06400 | 21567 ft | 431 kts | 358° |
| 2026-05-06 00:52 | 33.83664 | -97.06017 | 22047 ft | 433 kts | 358° |
| 2026-05-06 00:52 | 33.86668 | -97.05635 | 22510 ft | 434 kts | 357° |
| 2026-05-06 00:52 | 33.89659 | -97.05254 | 22954 ft | 436 kts | 357° |
| 2026-05-06 00:52 | 33.92679 | -97.04869 | 23437 ft | 437 kts | 357° |
| 2026-05-06 00:53 | 33.95732 | -97.04479 | 23941 ft | 439 kts | 357° |
| 2026-05-06 00:53 | 33.98743 | -97.04095 | 24416 ft | 441 kts | 357° |
| 2026-05-06 00:53 | 34.01799 | -97.03704 | 24898 ft | 443 kts | 357° |
| 2026-05-06 00:53 | 34.04903 | -97.03307 | 25393 ft | 445 kts | 357° |
| 2026-05-06 00:54 | 34.07961 | -97.02915 | 25845 ft | 449 kts | 356° |
| 2026-05-06 00:54 | 34.11108 | -97.02516 | 26329 ft | 452 kts | 356° |
| 2026-05-06 00:54 | 34.14230 | -97.02118 | 26788 ft | 455 kts | 356° |
| 2026-05-06 00:54 | 34.17399 | -97.01711 | 27232 ft | 459 kts | 355° |
| 2026-05-06 00:55 | 34.20594 | -97.01302 | 27658 ft | 462 kts | 355° |
| 2026-05-06 00:55 | 34.23788 | -97.00892 | 28071 ft | 465 kts | 355° |
| 2026-05-06 00:55 | 34.27035 | -97.00470 | 28491 ft | 468 kts | 355° |
| 2026-05-06 00:55 | 34.30295 | -97.00051 | 28920 ft | 471 kts | 355° |
| 2026-05-06 00:56 | 34.33547 | -96.99629 | 29332 ft | 474 kts | 355° |
| 2026-05-06 00:56 | 34.36851 | -96.99171 | 29747 ft | 481 kts | 358° |
| 2026-05-06 00:56 | 34.40177 | -96.98211 | 30139 ft | 499 kts | 7° |
| 2026-05-06 00:56 | 34.43473 | -96.96873 | 30544 ft | 503 kts | 8° |
| 2026-05-06 00:57 | 34.46818 | -96.95507 | 30929 ft | 503 kts | 8° |
| 2026-05-06 00:57 | 34.53434 | -96.92773 | 30965 ft | 500 kts | 7° |
| 2026-05-06 00:58 | 34.60002 | -96.90062 | 30924 ft | 496 kts | 7° |
| 2026-05-06 00:58 | 34.66543 | -96.87348 | 30926 ft | 498 kts | 7° |
| 2026-05-06 00:59 | 34.73092 | -96.84631 | 30907 ft | 499 kts | 7° |
| 2026-05-06 00:59 | 34.79674 | -96.81887 | 30909 ft | 498 kts | 7° |
| 2026-05-06 01:00 | 34.86242 | -96.79147 | 30915 ft | 498 kts | 7° |
| 2026-05-06 01:00 | 34.92811 | -96.76400 | 30916 ft | 499 kts | 7° |
| 2026-05-06 01:01 | 34.99361 | -96.73657 | 30917 ft | 498 kts | 7° |
| 2026-05-06 01:01 | 35.05936 | -96.70900 | 30918 ft | 498 kts | 7° |
| 2026-05-06 01:02 | 35.12495 | -96.68144 | 30915 ft | 498 kts | 7° |
| 2026-05-06 01:02 | 35.19094 | -96.65367 | 30915 ft | 498 kts | 7° |
| 2026-05-06 01:03 | 35.25649 | -96.62604 | 30916 ft | 499 kts | 7° |
| 2026-05-06 01:03 | 35.32233 | -96.59824 | 30917 ft | 500 kts | 7° |
| 2026-05-06 01:04 | 35.38788 | -96.57051 | 30918 ft | 501 kts | 7° |
| 2026-05-06 01:04 | 35.45399 | -96.54249 | 30919 ft | 501 kts | 7° |
| 2026-05-06 01:05 | 35.51986 | -96.51453 | 30920 ft | 501 kts | 7° |
| 2026-05-06 01:05 | 35.58591 | -96.48644 | 30921 ft | 501 kts | 7° |
| 2026-05-06 01:06 | 35.65160 | -96.45845 | 30922 ft | 501 kts | 7° |
| 2026-05-06 01:06 | 35.71719 | -96.43046 | 30923 ft | 499 kts | 7° |
| 2026-05-06 01:07 | 35.78312 | -96.40227 | 30924 ft | 499 kts | 7° |
| 2026-05-06 01:07 | 35.84860 | -96.37425 | 30925 ft | 499 kts | 7° |
| 2026-05-06 01:08 | 35.91442 | -96.34602 | 30919 ft | 499 kts | 7° |
| 2026-05-06 01:08 | 35.97975 | -96.31794 | 30904 ft | 500 kts | 7° |
| 2026-05-06 01:09 | 36.04565 | -96.28957 | 30903 ft | 501 kts | 7° |
| 2026-05-06 01:09 | 36.11167 | -96.26109 | 30902 ft | 500 kts | 7° |
| 2026-05-06 01:10 | 36.17731 | -96.23274 | 30902 ft | 500 kts | 7° |
| 2026-05-06 01:10 | 36.24298 | -96.20431 | 30903 ft | 501 kts | 7° |
| 2026-05-06 01:11 | 36.30883 | -96.17576 | 30903 ft | 501 kts | 7° |
| 2026-05-06 01:11 | 36.36385 | -96.15187 | 30904 ft | 500 kts | 7° |
| 2026-05-06 01:12 | 36.44025 | -96.11863 | 30906 ft | 501 kts | 7° |
| 2026-05-06 01:12 | 36.50632 | -96.08984 | 30907 ft | 502 kts | 7° |
| 2026-05-06 01:13 | 36.57230 | -96.06103 | 30908 ft | 503 kts | 7° |
| 2026-05-06 01:13 | 36.63855 | -96.03203 | 30909 ft | 503 kts | 7° |
| 2026-05-06 01:14 | 36.73737 | -95.98870 | 30936 ft | 502 kts | 7° |
| 2026-05-06 01:14 | 36.80351 | -95.95963 | 30963 ft | 503 kts | 7° |
| 2026-05-06 01:15 | 36.85802 | -95.93563 | 30966 ft | 501 kts | 7° |
| 2026-05-06 01:15 | 36.93452 | -95.90187 | 30968 ft | 497 kts | 7° |
| 2026-05-06 01:16 | 36.98889 | -95.87786 | 30969 ft | 497 kts | 7° |
| 2026-05-06 01:16 | 37.06551 | -95.84396 | 30969 ft | 499 kts | 7° |
| 2026-05-06 01:17 | 37.11982 | -95.81987 | 30966 ft | 498 kts | 7° |
| 2026-05-06 01:17 | 37.19626 | -95.78591 | 30967 ft | 498 kts | 7° |
| 2026-05-06 01:18 | 37.25063 | -95.76172 | 30969 ft | 498 kts | 7° |
| 2026-05-06 01:18 | 37.31580 | -95.73266 | 30970 ft | 498 kts | 7° |
| 2026-05-06 01:19 | 37.39221 | -95.69852 | 30970 ft | 498 kts | 7° |
| 2026-05-06 01:19 | 37.45737 | -95.66936 | 30969 ft | 498 kts | 7° |
| 2026-05-06 01:20 | 37.52306 | -95.63989 | 30972 ft | 498 kts | 7° |
| 2026-05-06 01:20 | 37.58849 | -95.61050 | 30976 ft | 498 kts | 7° |
| 2026-05-06 01:21 | 37.64297 | -95.58965 | 30564 ft | 481 kts | 356° |
| 2026-05-06 01:21 | 37.68623 | -95.58317 | 30002 ft | 464 kts | 351° |
| 2026-05-06 01:21 | 37.71822 | -95.57903 | 29512 ft | 463 kts | 352° |
| 2026-05-06 01:22 | 37.73959 | -95.57613 | 29170 ft | 461 kts | 352° |
| 2026-05-06 01:22 | 37.78200 | -95.57016 | 28523 ft | 458 kts | 352° |
| 2026-05-06 01:22 | 37.81379 | -95.56557 | 28031 ft | 455 kts | 352° |
| 2026-05-06 01:22 | 37.84519 | -95.56099 | 27515 ft | 453 kts | 353° |
| 2026-05-06 01:23 | 37.87598 | -95.55643 | 27203 ft | 443 kts | 353° |
| 2026-05-06 01:23 | 37.89657 | -95.55331 | 27129 ft | 432 kts | 352° |
| 2026-05-06 01:23 | 37.93602 | -95.54751 | 26522 ft | 428 kts | 352° |
| 2026-05-06 01:23 | 37.96549 | -95.54319 | 26077 ft | 425 kts | 353° |
| 2026-05-06 01:24 | 37.99475 | -95.53886 | 25651 ft | 422 kts | 353° |
| 2026-05-06 01:24 | 38.02349 | -95.53455 | 25230 ft | 419 kts | 353° |
| 2026-05-06 01:24 | 38.05276 | -95.53016 | 24792 ft | 416 kts | 353° |
| 2026-05-06 01:24 | 38.07163 | -95.52737 | 24513 ft | 414 kts | 353° |
| 2026-05-06 01:25 | 38.10990 | -95.52171 | 23912 ft | 412 kts | 353° |
| 2026-05-06 01:25 | 38.12887 | -95.51892 | 23605 ft | 410 kts | 353° |
| 2026-05-06 01:25 | 38.16633 | -95.51331 | 23013 ft | 408 kts | 353° |
| 2026-05-06 01:25 | 38.19456 | -95.50904 | 22566 ft | 405 kts | 354° |
| 2026-05-06 01:26 | 38.21326 | -95.50622 | 22273 ft | 404 kts | 354° |
| 2026-05-06 01:26 | 38.25033 | -95.50071 | 21696 ft | 400 kts | 354° |
| 2026-05-06 01:26 | 38.27808 | -95.49648 | 21255 ft | 398 kts | 355° |
| 2026-05-06 01:26 | 38.30515 | -95.49243 | 20837 ft | 395 kts | 355° |
| 2026-05-06 01:27 | 38.32335 | -95.48968 | 20558 ft | 393 kts | 355° |
| 2026-05-06 01:27 | 38.35056 | -95.48560 | 20139 ft | 391 kts | 355° |
| 2026-05-06 01:27 | 38.38633 | -95.48023 | 19585 ft | 387 kts | 356° |
| 2026-05-06 01:27 | 38.41314 | -95.47620 | 19170 ft | 385 kts | 356° |
| 2026-05-06 01:28 | 38.43977 | -95.47218 | 18756 ft | 382 kts | 357° |
| 2026-05-06 01:28 | 38.46594 | -95.46824 | 18348 ft | 380 kts | 357° |
| 2026-05-06 01:28 | 38.49193 | -95.46432 | 17941 ft | 377 kts | 357° |
| 2026-05-06 01:28 | 38.51791 | -95.46040 | 17534 ft | 375 kts | 358° |
| 2026-05-06 01:29 | 38.54374 | -95.45649 | 17129 ft | 372 kts | 358° |
| 2026-05-06 01:29 | 38.56966 | -95.45257 | 16721 ft | 370 kts | 358° |
| 2026-05-06 01:29 | 38.59492 | -95.44874 | 16322 ft | 367 kts | 359° |
| 2026-05-06 01:29 | 38.62032 | -95.44489 | 15917 ft | 365 kts | 359° |
| 2026-05-06 01:30 | 38.64540 | -95.44109 | 15510 ft | 362 kts | 359° |
| 2026-05-06 01:30 | 38.67048 | -95.43730 | 15109 ft | 360 kts | 359° |
| 2026-05-06 01:30 | 38.69533 | -95.43351 | 14695 ft | 358 kts | 359° |
| 2026-05-06 01:30 | 38.71970 | -95.42968 | 14295 ft | 356 kts | 359° |
| 2026-05-06 01:31 | 38.73644 | -95.42712 | 14014 ft | 354 kts | 360° |
| 2026-05-06 01:31 | 38.76865 | -95.42225 | 13484 ft | 351 kts | 360° |
| 2026-05-06 01:31 | 38.79277 | -95.41647 | 13046 ft | 357 kts | 13° |
| 2026-05-06 01:31 | 38.81519 | -95.40230 | 12644 ft | 363 kts | 31° |
| 2026-05-06 01:32 | 38.83396 | -95.38085 | 12248 ft | 365 kts | 45° |
| 2026-05-06 01:32 | 38.85101 | -95.35668 | 12015 ft | 356 kts | 45° |
| 2026-05-06 01:32 | 38.86732 | -95.33364 | 11991 ft | 342 kts | 46° |
| 2026-05-06 01:32 | 38.88289 | -95.31161 | 11935 ft | 328 kts | 45° |
| 2026-05-06 01:33 | 38.89312 | -95.29733 | 11718 ft | 321 kts | 45° |
| 2026-05-06 01:33 | 38.91292 | -95.26924 | 11090 ft | 317 kts | 45° |
| 2026-05-06 01:33 | 38.92769 | -95.24836 | 10612 ft | 314 kts | 46° |
| 2026-05-06 01:33 | 38.94221 | -95.22768 | 10182 ft | 309 kts | 46° |
| 2026-05-06 01:34 | 38.95651 | -95.20740 | 9827 ft | 301 kts | 45° |
| 2026-05-06 01:34 | 38.96576 | -95.19440 | 9569 ft | 297 kts | 45° |
| 2026-05-06 01:34 | 38.98278 | -95.16721 | 9034 ft | 291 kts | 62° |
| 2026-05-06 01:34 | 38.99098 | -95.14376 | 8654 ft | 285 kts | 65° |
| 2026-05-06 01:35 | 38.99884 | -95.12077 | 8282 ft | 278 kts | 64° |
| 2026-05-06 01:35 | 39.00394 | -95.10563 | 8034 ft | 274 kts | 64° |
| 2026-05-06 01:35 | 39.01380 | -95.07613 | 7475 ft | 269 kts | 64° |
| 2026-05-06 01:35 | 39.02107 | -95.05433 | 7048 ft | 264 kts | 64° |
| 2026-05-06 01:36 | 39.02823 | -95.03277 | 6671 ft | 260 kts | 64° |
| 2026-05-06 01:36 | 39.03290 | -95.01853 | 6437 ft | 257 kts | 64° |
| 2026-05-06 01:36 | 39.04218 | -94.99044 | 6004 ft | 261 kts | 64° |
| 2026-05-06 01:36 | 39.04922 | -94.96892 | 5727 ft | 259 kts | 65° |
| 2026-05-06 01:37 | 39.05620 | -94.94744 | 5548 ft | 256 kts | 65° |
| 2026-05-06 01:37 | 39.06311 | -94.92662 | 5380 ft | 256 kts | 65° |
| 2026-05-06 01:37 | 39.06769 | -94.91259 | 5240 ft | 255 kts | 65° |
| 2026-05-06 01:37 | 39.07678 | -94.88463 | 5004 ft | 248 kts | 65° |
| 2026-05-06 01:38 | 39.08323 | -94.86473 | 4999 ft | 236 kts | 65° |
| 2026-05-06 01:38 | 39.08741 | -94.85184 | 4991 ft | 228 kts | 65° |
| 2026-05-06 01:38 | 39.09351 | -94.83327 | 4997 ft | 222 kts | 60° |
| 2026-05-06 01:38 | 39.10706 | -94.81401 | 4904 ft | 226 kts | 39° |
| 2026-05-06 01:39 | 39.11525 | -94.80500 | 4676 ft | 232 kts | 40° |
| 2026-05-06 01:39 | 39.13177 | -94.78680 | 4231 ft | 233 kts | 40° |
| 2026-05-06 01:39 | 39.13976 | -94.77811 | 4156 ft | 226 kts | 34° |
| 2026-05-06 01:39 | 39.15936 | -94.76914 | 3766 ft | 222 kts | 12° |
| 2026-05-06 01:40 | 39.16935 | -94.76614 | 3570 ft | 219 kts | 13° |
| 2026-05-06 01:40 | 39.18830 | -94.76032 | 3181 ft | 201 kts | 12° |
| 2026-05-06 01:40 | 39.19712 | -94.75769 | 2999 ft | 193 kts | 12° |
| 2026-05-06 01:40 | 39.20998 | -94.75391 | 2731 ft | 182 kts | 12° |
| 2026-05-06 01:41 | 39.22559 | -94.74927 | 2421 ft | 163 kts | 12° |
| 2026-05-06 01:41 | 39.23603 | -94.74619 | 2229 ft | 142 kts | 12° |
| 2026-05-06 01:41 | 39.24222 | -94.74438 | 2109 ft | 136 kts | 12° |
| 2026-05-06 01:41 | 39.25479 | -94.74067 | 1855 ft | 141 kts | 12° |
| 2026-05-06 01:42 | 39.26114 | -94.73881 | 1728 ft | 144 kts | 12° |
| 2026-05-06 01:42 | 39.27091 | -94.73592 | 1521 ft | 145 kts | 12° |
| 2026-05-06 01:42 | 39.28422 | -94.73199 | 1250 ft | 147 kts | 12° |
| 2026-05-06 01:42 | 39.29077 | -94.73006 | 1122 ft | 148 kts | 12° |
| 2026-05-06 01:43 | 39.30059 | -94.72716 | 1009 ft | 125 kts | 13° |
| 2026-05-06 01:43 | 39.30677 | -94.72533 | 1004 ft | 72 kts | 12° |
| 2026-05-06 01:43 | 39.30981 | -94.72424 | 998 ft | 24 kts | 25° |
| 2026-05-06 01:43 | 39.31151 | -94.72253 | 995 ft | 23 kts | 58° |
| 2026-05-06 01:44 | 39.31163 | -94.72163 | 993 ft | 9 kts | 117° |
| 2026-05-06 01:44 | 39.31110 | -94.72133 | 992 ft | 8 kts | 180° |
| 2026-05-06 01:44 | 39.31054 | -94.72131 | 992 ft | 7 kts | 161° |
| 2026-05-06 01:44 | 39.31005 | -94.72070 | 991 ft | 12 kts | 124° |
| 2026-05-06 01:45 | 39.30988 | -94.71998 | 990 ft | 6 kts | 56° |
| 2026-05-06 01:45 | 39.31016 | -94.71993 | 990 ft | 1 kts | 321° |
| 2026-05-06 01:45 | 39.31017 | -94.71995 | 990 ft | 0 kts | 314° |